Charlottesville Albemarle Airport Charlottesville US
ICAO: KCHO
IATA: CHO
Category: Medium
Scheduled Services: Yes

Elevation: 639 ft
TransAlt. 18000 ft.

Airport Communications:
POTOMAC APP/DEP:132.85
ASOS:118.425
ATIS:118.425
CTAF:124.5
GND:121.9
LEESBURG RDO:122.2
TWR:124.5
UNICOM:122.95

KCHO Zoom In..

If you have problems with the map follow the link
https://www.worldairports.se/pages/airport.php?
ICAO=KCHO

Runways:

(A) RW 03 length 6801 ft width 150 ft
ILS 111.70 / hdg 30

(B) RW 21 length 6801 ft width 150 ft
---- / hdg 210

Location; KCHO
Day. 23 / Time. 22.53 Zulu
* Altimeter: 30.30
* Temperature: 06° c. 42.8°f.
* Wind from: 220° Speed 03 kn.
Dewpoint: -09° c.
Visibility: 10 Statute Miles.
Clouds: Clear (automated report).

KCHO 232253Z 22003KT 10SM CLR 06/M09 A3030 RMK AO2 SLP266 T00561089


Wind From 220°
Speed 03 kn.

 
 
jpsmedia worldairports.se 2020   terms of use